Lihue Airport Lihue US
ICAO: PHLI
IATA:
Category: Medium
Scheduled Services:

Elevation: 153 ft
TransAlt. 18000 ft.

Airport Communications:
ATIS:127.2
HONOLULU CNTR:126.5
CTAF:118.9
GND:121.9
HONOLULU:122.6
TWR:118.9

PHLI Zoom In..

If you have problems with the map follow the link
https://www.worldairports.se/pages/airport.php?
ICAO=PHLI

Runways:

(A) RW 03 length 6500 ft width 150 ft
---- / hdg 34

(B) RW 17 length 6500 ft width 150 ft
---- / hdg 169

(C) RW 21 length 6500 ft width 150 ft
---- / hdg 214

(D) RW 35 length 6500 ft width 150 ft
ILS 110.90 / hdg 349

Location; PHLI
Day. 22 / Time. 12.33 Zulu
* Altimeter: 30.00
* Temperature: 25° c. 77°f.
* Wind from: 040° Speed 11 kn.
Dewpoint: 21° c.
Visibility: 10 Statute Miles.
Clouds: Scattered 1700 ft.
Clouds: Broken 2500 ft.

PHLI 221233Z AUTO 04011KT 10SM SCT017 BKN025 25/21 A3000 RMK AO2 T02500211 TSNO $


Wind From 040°
Speed 11 kn.

 
 
jpsmedia.com for Web Design worldairports.se 2018   terms of use